PWSweather.com
Personal Weather Stations
Station Observations
KKYBOWLI8
Greystone Ii, Bowling Green, KY 42101

Greystone IiBowling Green, KY 42101

Lat: 36.9238, Lon: -86.5206

Elevation: 600

Station Type: Davis Vantage Pro2

www.sokyweather.com

High Low Average
Temperature 75.2°F24.0°C 46.0°F7.8°C 59.9°F15.5°C
Dew Point 65.0°F18.3°C 44.7°F7.1°C 55.7°F13.2°C
Winds 10.9 mph 17.5 kmh Calm Calm 5.0 mph SW8.0 kmh SW
Wind Gusts 23.0 mph37.0 kmh -- 10.0 mph16.1 kmh
Humidity 100% 57% 88%
Pressure 29.97 in1014.9 mb 29.71 in1006.1 mb -
Precipitation 0.17 in4.3 mm - -
Hour Temp Dew Point Humidity Winds Wind Gusts Pressure Precip Precip Rate Daily Precip Total
12:00 AM 53.4°F11.9°C 40.3°F4.6°C 61% 1.0 mph SE1.6 kmh SE 5.0 mph8.0 kmh 29.91 in1012.9 mb 0.00 in0.0 mm 0.00 in0.0 mm 0.00 in0.0 mm
12:10 AM 53.6°F12.0°C 40.9°F4.9°C 62% 1.0 mph SE1.6 kmh SE 4.0 mph6.4 kmh 29.90 in1012.5 mb 0.00 in0.0 mm 0.00 in0.0 mm 0.00 in0.0 mm
12:20 AM 53.9°F12.2°C 41.6°F5.3°C 63% 0.2 mph SE0.3 kmh SE 2.0 mph3.2 kmh 29.90 in1012.5 mb 0.00 in0.0 mm 0.00 in0.0 mm 0.00 in0.0 mm
12:30 AM 54.2°F12.3°C 42.3°F5.7°C 64% Calm Calm 2.0 mph3.2 kmh 29.90 in1012.5 mb 0.00 in0.0 mm 0.00 in0.0 mm 0.00 in0.0 mm
12:40 AM 54.5°F12.5°C 43.0°F6.1°C 65% Calm Calm 3.0 mph4.8 kmh 29.90 in1012.5 mb 0.00 in0.0 mm 0.00 in0.0 mm 0.00 in0.0 mm
12:50 AM 54.8°F12.7°C 43.7°F6.5°C 66% Calm Calm 1.0 mph1.6 kmh 29.90 in1012.5 mb 0.00 in0.0 mm 0.00 in0.0 mm 0.00 in0.0 mm
01:00 AM 55.1°F12.8°C 44.7°F7.1°C 68% Calm Calm 3.0 mph4.8 kmh 29.89 in1012.2 mb 0.00 in0.0 mm 0.00 in0.0 mm 0.00 in0.0 mm
01:10 AM 55.4°F13.0°C 45.4°F7.4°C 69% Calm Calm 4.0 mph6.4 kmh 29.89 in1012.2 mb 0.00 in0.0 mm 0.00 in0.0 mm 0.00 in0.0 mm
01:20 AM 55.4°F13.0°C 45.8°F7.7°C 70% Calm Calm 3.0 mph4.8 kmh 29.90 in1012.5 mb 0.00 in0.0 mm 0.00 in0.0 mm 0.00 in0.0 mm
01:30 AM 55.7°F13.2°C 47.2°F8.4°C 73% 0.1 mph SE0.2 kmh SE 4.0 mph6.4 kmh 29.89 in1012.2 mb 0.00 in0.0 mm 0.00 in0.0 mm 0.00 in0.0 mm
01:40 AM 56.0°F13.3°C 48.2°F9.0°C 75% 1.0 mph SE1.6 kmh SE 5.0 mph8.0 kmh 29.88 in1011.9 mb 0.00 in0.0 mm 0.00 in0.0 mm 0.00 in0.0 mm
01:50 AM 56.3°F13.5°C 49.5°F9.7°C 78% 0.5 mph S0.8 kmh S 5.0 mph8.0 kmh 29.86 in1011.2 mb 0.00 in0.0 mm 0.00 in0.0 mm 0.00 in0.0 mm
02:00 AM 57.5°F14.2°C 53.0°F11.7°C 85% 2.1 mph S3.4 kmh S 8.0 mph12.9 kmh 29.86 in1011.2 mb 0.00 in0.0 mm 0.00 in0.0 mm 0.00 in0.0 mm
02:10 AM 58.4°F14.7°C 54.9°F12.7°C 88% 4.6 mph S7.4 kmh S 11.0 mph17.7 kmh 29.84 in1010.5 mb 0.00 in0.0 mm 0.00 in0.0 mm 0.00 in0.0 mm
02:20 AM 58.7°F14.8°C 55.8°F13.2°C 90% 5.5 mph S8.9 kmh S 8.0 mph12.9 kmh 29.85 in1010.8 mb 0.00 in0.0 mm 0.00 in0.0 mm 0.00 in0.0 mm
02:30 AM 59.2°F15.1°C 56.6°F13.7°C 91% 3.5 mph SSW5.6 kmh SSW 12.0 mph19.3 kmh 29.86 in1011.2 mb 0.00 in0.0 mm 0.00 in0.0 mm 0.00 in0.0 mm
02:40 AM 59.5°F15.3°C 57.2°F14.0°C 92% 5.5 mph SW8.9 kmh SW 11.0 mph17.7 kmh 29.86 in1011.2 mb 0.00 in0.0 mm 0.00 in0.0 mm 0.00 in0.0 mm
02:50 AM 59.5°F15.3°C 57.2°F14.0°C 92% 5.4 mph SSW8.7 kmh SSW 9.0 mph14.5 kmh 29.85 in1010.8 mb 0.00 in0.0 mm 0.00 in0.0 mm 0.00 in0.0 mm
03:00 AM 59.5°F15.3°C 57.2°F14.0°C 92% 4.6 mph SW7.4 kmh SW 9.0 mph14.5 kmh 29.86 in1011.2 mb 0.00 in0.0 mm 0.00 in0.0 mm 0.00 in0.0 mm
03:10 AM 59.5°F15.3°C 57.5°F14.2°C 93% 2.2 mph SW3.5 kmh SW 5.0 mph8.0 kmh 29.86 in1011.2 mb 0.00 in0.0 mm 0.00 in0.0 mm 0.00 in0.0 mm
03:20 AM 59.3°F15.2°C 57.6°F14.2°C 94% 0.4 mph SW0.6 kmh SW 3.0 mph4.8 kmh 29.86 in1011.2 mb 0.00 in0.0 mm 0.00 in0.0 mm 0.00 in0.0 mm
03:30 AM 59.0°F15.0°C 58.2°F14.6°C 97% Calm Calm 3.0 mph4.8 kmh 29.87 in1011.5 mb 0.01 in0.3 mm 0.06 in1.5 mm 0.01 in0.3 mm
03:40 AM 58.3°F14.6°C 58.3°F14.6°C 100% 0.3 mph SW0.5 kmh SW 4.0 mph6.4 kmh 29.88 in1011.9 mb 0.05 in1.3 mm 0.24 in6.1 mm 0.05 in1.3 mm
03:50 AM 57.0°F13.9°C 57.0°F13.9°C 100% 2.0 mph SSE3.2 kmh SSE 9.0 mph14.5 kmh 29.79 in1008.8 mb 0.15 in3.8 mm 0.60 in15.2 mm 0.15 in3.8 mm
04:00 AM 56.5°F13.6°C 56.5°F13.6°C 100% 5.6 mph SSW9.0 kmh SSW 14.0 mph22.5 kmh 29.84 in1010.5 mb 0.15 in3.8 mm 0.00 in0.0 mm 0.15 in3.8 mm
04:10 AM 56.6°F13.7°C 56.6°F13.7°C 100% 6.7 mph SW10.8 kmh SW 11.0 mph17.7 kmh 29.86 in1011.2 mb 0.16 in4.1 mm 0.06 in1.5 mm 0.16 in4.1 mm
04:20 AM 56.6°F13.7°C 56.6°F13.7°C 100% 4.0 mph SW6.4 kmh SW 8.0 mph12.9 kmh 29.85 in1010.8 mb 0.16 in4.1 mm 0.00 in0.0 mm 0.16 in4.1 mm
04:30 AM 56.6°F13.7°C 56.6°F13.7°C 100% 4.6 mph S7.4 kmh S 9.0 mph14.5 kmh 29.81 in1009.5 mb 0.14 in3.6 mm 0.00 in0.0 mm 0.16 in4.1 mm
04:40 AM 56.5°F13.6°C 56.5°F13.6°C 100% 5.6 mph S9.0 kmh S 11.0 mph17.7 kmh 29.82 in1009.8 mb 0.10 in2.5 mm 0.00 in0.0 mm 0.16 in4.1 mm
04:50 AM 56.5°F13.6°C 56.5°F13.6°C 100% 5.0 mph SSW8.0 kmh SSW 9.0 mph14.5 kmh 29.83 in1010.2 mb 0.01 in0.3 mm 0.00 in0.0 mm 0.16 in4.1 mm
05:00 AM 56.3°F13.5°C 56.3°F13.5°C 100% 4.0 mph SSW6.4 kmh SSW 7.0 mph11.3 kmh 29.83 in1010.2 mb 0.01 in0.3 mm 0.00 in0.0 mm 0.16 in4.1 mm
05:10 AM 56.0°F13.3°C 56.0°F13.3°C 100% 3.0 mph SSW4.8 kmh SSW 6.0 mph9.7 kmh 29.83 in1010.2 mb 0.00 in0.0 mm 0.00 in0.0 mm 0.16 in4.1 mm
05:20 AM 55.9°F13.3°C 55.9°F13.3°C 100% 2.5 mph SSW4.0 kmh SSW 6.0 mph9.7 kmh 29.84 in1010.5 mb 0.00 in0.0 mm 0.00 in0.0 mm 0.16 in4.1 mm
05:30 AM 56.0°F13.3°C 56.0°F13.3°C 100% 1.4 mph SSW2.3 kmh SSW 7.0 mph11.3 kmh 29.84 in1010.5 mb 0.00 in0.0 mm 0.00 in0.0 mm 0.16 in4.1 mm
05:40 AM 55.9°F13.3°C 55.9°F13.3°C 100% 3.7 mph SSW6.0 kmh SSW 6.0 mph9.7 kmh 29.84 in1010.5 mb 0.00 in0.0 mm 0.00 in0.0 mm 0.16 in4.1 mm
05:50 AM 55.4°F13.0°C 55.4°F13.0°C 100% 2.8 mph SSW4.5 kmh SSW 6.0 mph9.7 kmh 29.84 in1010.5 mb 0.00 in0.0 mm 0.00 in0.0 mm 0.16 in4.1 mm
06:00 AM 55.4°F13.0°C 55.4°F13.0°C 100% 1.0 mph SSW1.6 kmh SSW 5.0 mph8.0 kmh 29.84 in1010.5 mb 0.00 in0.0 mm 0.00 in0.0 mm 0.16 in4.1 mm
06:10 AM 55.3°F12.9°C 55.3°F12.9°C 100% 1.5 mph SSW2.4 kmh SSW 6.0 mph9.7 kmh 29.84 in1010.5 mb 0.00 in0.0 mm 0.00 in0.0 mm 0.16 in4.1 mm
06:20 AM 55.4°F13.0°C 55.4°F13.0°C 100% 0.8 mph SSW1.3 kmh SSW 3.0 mph4.8 kmh 29.85 in1010.8 mb 0.00 in0.0 mm 0.00 in0.0 mm 0.16 in4.1 mm
06:30 AM 55.4°F13.0°C 55.4°F13.0°C 100% Calm Calm 3.0 mph4.8 kmh 29.85 in1010.8 mb 0.00 in0.0 mm 0.00 in0.0 mm 0.16 in4.1 mm
06:40 AM 55.3°F12.9°C 55.3°F12.9°C 100% Calm Calm 1.0 mph1.6 kmh 29.84 in1010.5 mb 0.00 in0.0 mm 0.00 in0.0 mm 0.16 in4.1 mm
06:50 AM 55.3°F12.9°C 55.3°F12.9°C 100% Calm Calm 2.0 mph3.2 kmh 29.84 in1010.5 mb 0.00 in0.0 mm 0.00 in0.0 mm 0.16 in4.1 mm
07:00 AM 55.0°F12.8°C 55.0°F12.8°C 100% Calm Calm 3.0 mph4.8 kmh 29.84 in1010.5 mb 0.00 in0.0 mm 0.00 in0.0 mm 0.16 in4.1 mm
07:10 AM 54.7°F12.6°C 54.7°F12.6°C 100% Calm Calm 2.0 mph3.2 kmh 29.84 in1010.5 mb 0.00 in0.0 mm 0.00 in0.0 mm 0.16 in4.1 mm
07:20 AM 54.5°F12.5°C 54.5°F12.5°C 100% 0.3 mph S0.5 kmh S 6.0 mph9.7 kmh 29.83 in1010.2 mb 0.00 in0.0 mm 0.00 in0.0 mm 0.16 in4.1 mm
07:30 AM 54.5°F12.5°C 54.5°F12.5°C 100% 1.9 mph S3.1 kmh S 5.0 mph8.0 kmh 29.83 in1010.2 mb 0.00 in0.0 mm 0.00 in0.0 mm 0.16 in4.1 mm
07:40 AM 54.4°F12.4°C 54.4°F12.4°C 100% 2.0 mph S3.2 kmh S 5.0 mph8.0 kmh 29.83 in1010.2 mb 0.00 in0.0 mm 0.00 in0.0 mm 0.16 in4.1 mm
07:50 AM 54.7°F12.6°C 54.7°F12.6°C 100% 1.2 mph S1.9 kmh S 6.0 mph9.7 kmh 29.84 in1010.5 mb 0.00 in0.0 mm 0.00 in0.0 mm 0.16 in4.1 mm
08:00 AM 54.8°F12.7°C 54.8°F12.7°C 100% 1.0 mph S1.6 kmh S 5.0 mph8.0 kmh 29.85 in1010.8 mb 0.00 in0.0 mm 0.00 in0.0 mm 0.16 in4.1 mm
08:10 AM 54.8°F12.7°C 54.8°F12.7°C 100% 1.0 mph S1.6 kmh S 5.0 mph8.0 kmh 29.85 in1010.8 mb 0.00 in0.0 mm 0.00 in0.0 mm 0.16 in4.1 mm
08:20 AM 55.1°F12.8°C 55.1°F12.8°C 100% 2.2 mph S3.5 kmh S 9.0 mph14.5 kmh 29.86 in1011.2 mb 0.00 in0.0 mm 0.00 in0.0 mm 0.16 in4.1 mm
08:30 AM 55.6°F13.1°C 55.6°F13.1°C 100% 3.9 mph SSW6.3 kmh SSW 7.0 mph11.3 kmh 29.86 in1011.2 mb 0.00 in0.0 mm 0.00 in0.0 mm 0.16 in4.1 mm
08:40 AM 56.3°F13.5°C 56.3°F13.5°C 100% 4.0 mph SSW6.4 kmh SSW 9.0 mph14.5 kmh 29.85 in1010.8 mb 0.00 in0.0 mm 0.00 in0.0 mm 0.16 in4.1 mm
08:50 AM 57.2°F14.0°C 57.2°F14.0°C 100% 3.5 mph SSW5.6 kmh SSW 7.0 mph11.3 kmh 29.85 in1010.8 mb 0.00 in0.0 mm 0.00 in0.0 mm 0.16 in4.1 mm
09:00 AM 57.8°F14.3°C 57.8°F14.3°C 100% 4.5 mph SW7.2 kmh SW 11.0 mph17.7 kmh 29.84 in1010.5 mb 0.00 in0.0 mm 0.00 in0.0 mm 0.16 in4.1 mm
09:10 AM 58.9°F14.9°C 58.9°F14.9°C 100% 5.1 mph SSW8.2 kmh SSW 11.0 mph17.7 kmh 29.83 in1010.2 mb 0.00 in0.0 mm 0.00 in0.0 mm 0.16 in4.1 mm
09:20 AM 59.6°F15.3°C 59.6°F15.3°C 100% 6.0 mph SSW9.7 kmh SSW 13.0 mph20.9 kmh 29.83 in1010.2 mb 0.00 in0.0 mm 0.00 in0.0 mm 0.16 in4.1 mm
09:30 AM 60.8°F16.0°C 60.8°F16.0°C 100% 5.9 mph SSW9.5 kmh SSW 10.0 mph16.1 kmh 29.82 in1009.8 mb 0.00 in0.0 mm 0.00 in0.0 mm 0.16 in4.1 mm
09:40 AM 61.6°F16.4°C 61.6°F16.4°C 100% 5.4 mph SSW8.7 kmh SSW 13.0 mph20.9 kmh 29.83 in1010.2 mb 0.00 in0.0 mm 0.00 in0.0 mm 0.16 in4.1 mm
09:50 AM 62.7°F17.1°C 62.7°F17.1°C 100% 5.7 mph SW9.2 kmh SW 11.0 mph17.7 kmh 29.83 in1010.2 mb 0.00 in0.0 mm 0.00 in0.0 mm 0.16 in4.1 mm
10:00 AM 63.4°F17.4°C 63.4°F17.4°C 100% 5.1 mph SW8.2 kmh SW 18.0 mph29.0 kmh 29.83 in1010.2 mb 0.00 in0.0 mm 0.00 in0.0 mm 0.16 in4.1 mm
10:10 AM 63.2°F17.3°C 63.2°F17.3°C 100% 6.7 mph SW10.8 kmh SW 15.0 mph24.1 kmh 29.84 in1010.5 mb 0.00 in0.0 mm 0.00 in0.0 mm 0.16 in4.1 mm
10:20 AM 63.2°F17.3°C 63.2°F17.3°C 100% 5.2 mph W8.4 kmh W 11.0 mph17.7 kmh 29.84 in1010.5 mb 0.00 in0.0 mm 0.00 in0.0 mm 0.16 in4.1 mm
10:30 AM 63.7°F17.6°C 63.7°F17.6°C 100% 4.7 mph W7.6 kmh W 7.0 mph11.3 kmh 29.84 in1010.5 mb 0.00 in0.0 mm 0.00 in0.0 mm 0.16 in4.1 mm
10:40 AM 64.5°F18.1°C 63.6°F17.6°C 97% 4.0 mph W6.4 kmh W 12.0 mph19.3 kmh 29.84 in1010.5 mb 0.00 in0.0 mm 0.00 in0.0 mm 0.16 in4.1 mm
10:50 AM 65.3°F18.5°C 63.2°F17.3°C 93% 5.4 mph W8.7 kmh W 14.0 mph22.5 kmh 29.84 in1010.5 mb 0.00 in0.0 mm 0.00 in0.0 mm 0.16 in4.1 mm
11:00 AM 65.8°F18.8°C 63.7°F17.6°C 93% 5.0 mph W8.0 kmh W 13.0 mph20.9 kmh 29.83 in1010.2 mb 0.00 in0.0 mm 0.00 in0.0 mm 0.16 in4.1 mm
11:10 AM 66.1°F18.9°C 63.1°F17.3°C 90% 5.5 mph WSW8.9 kmh WSW 16.0 mph25.7 kmh 29.83 in1010.2 mb 0.00 in0.0 mm 0.00 in0.0 mm 0.16 in4.1 mm
11:20 AM 66.6°F19.2°C 63.6°F17.6°C 90% 5.9 mph WSW9.5 kmh WSW 12.0 mph19.3 kmh 29.83 in1010.2 mb 0.00 in0.0 mm 0.00 in0.0 mm 0.16 in4.1 mm
11:30 AM 67.1°F19.5°C 63.7°F17.6°C 89% 5.2 mph WSW8.4 kmh WSW 14.0 mph22.5 kmh 29.81 in1009.5 mb 0.01 in0.3 mm 0.06 in1.5 mm 0.17 in4.3 mm
11:40 AM 67.7°F19.8°C 63.7°F17.6°C 87% 5.4 mph WSW8.7 kmh WSW 11.0 mph17.7 kmh 29.81 in1009.5 mb 0.01 in0.3 mm 0.00 in0.0 mm 0.17 in4.3 mm
11:50 AM 67.9°F19.9°C 63.2°F17.3°C 85% 4.1 mph WSW6.6 kmh WSW 15.0 mph24.1 kmh 29.80 in1009.1 mb 0.01 in0.3 mm 0.00 in0.0 mm 0.17 in4.3 mm
12:00 PM 68.4°F20.2°C 63.4°F17.4°C 84% 5.0 mph WSW8.0 kmh WSW 11.0 mph17.7 kmh 29.80 in1009.1 mb 0.01 in0.3 mm 0.00 in0.0 mm 0.17 in4.3 mm
12:10 PM 68.1°F20.1°C 63.4°F17.4°C 85% 5.5 mph WSW8.9 kmh WSW 14.0 mph22.5 kmh 29.80 in1009.1 mb 0.01 in0.3 mm 0.00 in0.0 mm 0.17 in4.3 mm
12:20 PM 69.4°F20.8°C 63.7°F17.6°C 82% 5.0 mph SW8.0 kmh SW 15.0 mph24.1 kmh 29.79 in1008.8 mb 0.01 in0.3 mm 0.00 in0.0 mm 0.17 in4.3 mm
12:30 PM 70.2°F21.2°C 64.8°F18.2°C 83% 5.4 mph SW8.7 kmh SW 15.0 mph24.1 kmh 29.79 in1008.8 mb 0.00 in0.0 mm 0.00 in0.0 mm 0.17 in4.3 mm
12:40 PM 71.1°F21.7°C 65.0°F18.3°C 81% 4.2 mph WSW6.8 kmh WSW 11.0 mph17.7 kmh 29.79 in1008.8 mb 0.00 in0.0 mm 0.00 in0.0 mm 0.17 in4.3 mm
12:50 PM 71.1°F21.7°C 64.3°F17.9°C 79% 5.3 mph SW8.5 kmh SW 15.0 mph24.1 kmh 29.78 in1008.5 mb 0.00 in0.0 mm 0.00 in0.0 mm 0.17 in4.3 mm
01:00 PM 71.4°F21.9°C 63.8°F17.7°C 77% 5.1 mph WSW8.2 kmh WSW 15.0 mph24.1 kmh 29.78 in1008.5 mb 0.00 in0.0 mm 0.00 in0.0 mm 0.17 in4.3 mm
01:10 PM 71.9°F22.2°C 64.3°F17.9°C 77% 5.3 mph SW8.5 kmh SW 11.0 mph17.7 kmh 29.77 in1008.1 mb 0.00 in0.0 mm 0.00 in0.0 mm 0.17 in4.3 mm
01:20 PM 72.3°F22.4°C 63.2°F17.3°C 73% 4.7 mph WSW7.6 kmh WSW 17.0 mph27.4 kmh 29.77 in1008.1 mb 0.00 in0.0 mm 0.00 in0.0 mm 0.17 in4.3 mm
01:30 PM 72.6°F22.6°C 63.8°F17.7°C 74% 5.6 mph SW9.0 kmh SW 17.0 mph27.4 kmh 29.76 in1007.8 mb 0.00 in0.0 mm 0.00 in0.0 mm 0.17 in4.3 mm
01:40 PM 73.1°F22.8°C 62.3°F16.8°C 69% 5.6 mph SW9.0 kmh SW 22.0 mph35.4 kmh 29.76 in1007.8 mb 0.00 in0.0 mm 0.00 in0.0 mm 0.17 in4.3 mm
01:50 PM 73.6°F23.1°C 63.2°F17.3°C 70% 6.0 mph SW9.7 kmh SW 13.0 mph20.9 kmh 29.75 in1007.5 mb 0.00 in0.0 mm 0.00 in0.0 mm 0.17 in4.3 mm
02:00 PM 73.5°F23.1°C 62.7°F17.1°C 69% 6.0 mph SW9.7 kmh SW 23.0 mph37.0 kmh 29.74 in1007.1 mb 0.00 in0.0 mm 0.00 in0.0 mm 0.17 in4.3 mm
02:10 PM 74.2°F23.4°C 63.4°F17.4°C 69% 6.8 mph WSW10.9 kmh WSW 22.0 mph35.4 kmh 29.73 in1006.8 mb 0.00 in0.0 mm 0.00 in0.0 mm 0.17 in4.3 mm
02:20 PM 74.3°F23.5°C 62.2°F16.8°C 66% 6.2 mph WSW10.0 kmh WSW 14.0 mph22.5 kmh 29.73 in1006.8 mb 0.00 in0.0 mm 0.00 in0.0 mm 0.17 in4.3 mm
02:30 PM 74.3°F23.5°C 61.3°F16.3°C 64% 6.1 mph WSW9.8 kmh WSW 15.0 mph24.1 kmh 29.72 in1006.4 mb 0.00 in0.0 mm 0.00 in0.0 mm 0.17 in4.3 mm
02:40 PM 75.2°F24.0°C 60.8°F16.0°C 61% 5.5 mph WSW8.9 kmh WSW 13.0 mph20.9 kmh 29.72 in1006.4 mb 0.00 in0.0 mm 0.00 in0.0 mm 0.17 in4.3 mm
02:50 PM 74.7°F23.7°C 59.9°F15.5°C 60% 8.1 mph W13.0 kmh W 21.0 mph33.8 kmh 29.72 in1006.4 mb 0.00 in0.0 mm 0.00 in0.0 mm 0.17 in4.3 mm
03:00 PM 75.0°F23.9°C 59.7°F15.4°C 59% 10.0 mph W16.1 kmh W 17.0 mph27.4 kmh 29.72 in1006.4 mb 0.00 in0.0 mm 0.00 in0.0 mm 0.17 in4.3 mm
03:10 PM 75.2°F24.0°C 58.9°F14.9°C 57% 8.6 mph WSW13.8 kmh WSW 17.0 mph27.4 kmh 29.72 in1006.4 mb 0.00 in0.0 mm 0.00 in0.0 mm 0.17 in4.3 mm
03:20 PM 74.5°F23.6°C 59.7°F15.4°C 60% 8.0 mph W12.9 kmh W 18.0 mph29.0 kmh 29.72 in1006.4 mb 0.00 in0.0 mm 0.00 in0.0 mm 0.17 in4.3 mm
03:30 PM 74.9°F23.8°C 59.6°F15.3°C 59% 9.1 mph W14.6 kmh W 18.0 mph29.0 kmh 29.72 in1006.4 mb 0.00 in0.0 mm 0.00 in0.0 mm 0.17 in4.3 mm
03:40 PM 74.5°F23.6°C 59.2°F15.1°C 59% 10.3 mph W16.6 kmh W 17.0 mph27.4 kmh 29.71 in1006.1 mb 0.00 in0.0 mm 0.00 in0.0 mm 0.17 in4.3 mm
03:50 PM 74.2°F23.4°C 58.5°F14.7°C 58% 9.8 mph W15.8 kmh W 15.0 mph24.1 kmh 29.72 in1006.4 mb 0.00 in0.0 mm 0.00 in0.0 mm 0.17 in4.3 mm
04:00 PM 75.0°F23.9°C 58.7°F14.8°C 57% 10.5 mph WNW16.9 kmh WNW 20.0 mph32.2 kmh 29.71 in1006.1 mb 0.00 in0.0 mm 0.00 in0.0 mm 0.17 in4.3 mm
04:10 PM 75.2°F24.0°C 58.9°F14.9°C 57% 10.2 mph W16.4 kmh W 17.0 mph27.4 kmh 29.71 in1006.1 mb 0.00 in0.0 mm 0.00 in0.0 mm 0.17 in4.3 mm
04:20 PM 75.0°F23.9°C 59.2°F15.1°C 58% 10.4 mph WNW16.7 kmh WNW 19.0 mph30.6 kmh 29.71 in1006.1 mb 0.00 in0.0 mm 0.00 in0.0 mm 0.17 in4.3 mm
04:30 PM 73.6°F23.1°C 58.9°F14.9°C 60% 10.9 mph WNW17.5 kmh WNW 19.0 mph30.6 kmh 29.71 in1006.1 mb 0.00 in0.0 mm 0.00 in0.0 mm 0.17 in4.3 mm
04:40 PM 73.5°F23.1°C 58.8°F14.9°C 60% 10.0 mph WNW16.1 kmh WNW 17.0 mph27.4 kmh 29.72 in1006.4 mb 0.00 in0.0 mm 0.00 in0.0 mm 0.17 in4.3 mm
04:50 PM 71.6°F22.0°C 61.3°F16.3°C 70% 10.5 mph NW16.9 kmh NW 16.0 mph25.7 kmh 29.73 in1006.8 mb 0.00 in0.0 mm 0.00 in0.0 mm 0.17 in4.3 mm
05:00 PM 68.7°F20.4°C 60.5°F15.8°C 75% 10.0 mph N16.1 kmh N 17.0 mph27.4 kmh 29.74 in1007.1 mb 0.00 in0.0 mm 0.00 in0.0 mm 0.17 in4.3 mm
05:10 PM 67.1°F19.5°C 59.3°F15.2°C 76% 10.0 mph N16.1 kmh N 16.0 mph25.7 kmh 29.75 in1007.5 mb 0.00 in0.0 mm 0.00 in0.0 mm 0.17 in4.3 mm
05:20 PM 66.3°F19.1°C 58.9°F14.9°C 77% 8.6 mph NNW13.8 kmh NNW 12.0 mph19.3 kmh 29.75 in1007.5 mb 0.00 in0.0 mm 0.00 in0.0 mm 0.17 in4.3 mm
05:30 PM 64.8°F18.2°C 58.1°F14.5°C 79% 7.0 mph NNW11.3 kmh NNW 11.0 mph17.7 kmh 29.77 in1008.1 mb 0.00 in0.0 mm 0.00 in0.0 mm 0.17 in4.3 mm
05:40 PM 63.0°F17.2°C 57.4°F14.1°C 82% 8.5 mph N13.7 kmh N 14.0 mph22.5 kmh 29.77 in1008.1 mb 0.00 in0.0 mm 0.00 in0.0 mm 0.17 in4.3 mm
05:50 PM 62.1°F16.7°C 56.9°F13.8°C 83% 8.6 mph N13.8 kmh N 12.0 mph19.3 kmh 29.78 in1008.5 mb 0.00 in0.0 mm 0.00 in0.0 mm 0.17 in4.3 mm
06:00 PM 60.8°F16.0°C 55.9°F13.3°C 84% 7.8 mph N12.6 kmh N 14.0 mph22.5 kmh 29.79 in1008.8 mb 0.00 in0.0 mm 0.00 in0.0 mm 0.17 in4.3 mm
06:10 PM 60.2°F15.7°C 55.7°F13.2°C 85% 8.7 mph N14.0 kmh N 11.0 mph17.7 kmh 29.80 in1009.1 mb 0.00 in0.0 mm 0.00 in0.0 mm 0.17 in4.3 mm
06:20 PM 59.9°F15.5°C 55.4°F13.0°C 85% 7.7 mph N12.4 kmh N 13.0 mph20.9 kmh 29.80 in1009.1 mb 0.00 in0.0 mm 0.00 in0.0 mm 0.17 in4.3 mm
06:30 PM 59.3°F15.2°C 55.1°F12.8°C 86% 7.7 mph N12.4 kmh N 10.0 mph16.1 kmh 29.80 in1009.1 mb 0.00 in0.0 mm 0.00 in0.0 mm 0.17 in4.3 mm
06:40 PM 58.7°F14.8°C 54.8°F12.7°C 87% 7.3 mph N11.7 kmh N 11.0 mph17.7 kmh 29.81 in1009.5 mb 0.00 in0.0 mm 0.00 in0.0 mm 0.17 in4.3 mm
06:50 PM 58.1°F14.5°C 54.2°F12.3°C 87% 6.1 mph N9.8 kmh N 9.0 mph14.5 kmh 29.81 in1009.5 mb 0.00 in0.0 mm 0.00 in0.0 mm 0.17 in4.3 mm
07:00 PM 57.6°F14.2°C 53.1°F11.7°C 85% 6.8 mph N10.9 kmh N 12.0 mph19.3 kmh 29.82 in1009.8 mb 0.00 in0.0 mm 0.00 in0.0 mm 0.17 in4.3 mm
07:10 PM 56.9°F13.8°C 52.1°F11.2°C 84% 7.5 mph N12.1 kmh N 11.0 mph17.7 kmh 29.83 in1010.2 mb 0.00 in0.0 mm 0.00 in0.0 mm 0.17 in4.3 mm
07:20 PM 56.2°F13.4°C 51.7°F10.9°C 85% 7.0 mph N11.3 kmh N 12.0 mph19.3 kmh 29.84 in1010.5 mb 0.00 in0.0 mm 0.00 in0.0 mm 0.17 in4.3 mm
07:30 PM 55.7°F13.2°C 51.3°F10.7°C 85% 7.2 mph N11.6 kmh N 13.0 mph20.9 kmh 29.84 in1010.5 mb 0.00 in0.0 mm 0.00 in0.0 mm 0.17 in4.3 mm
07:40 PM 55.4°F13.0°C 51.0°F10.6°C 85% 7.0 mph N11.3 kmh N 11.0 mph17.7 kmh 29.84 in1010.5 mb 0.00 in0.0 mm 0.00 in0.0 mm 0.17 in4.3 mm
07:50 PM 55.0°F12.8°C 50.9°F10.5°C 86% 6.1 mph N9.8 kmh N 10.0 mph16.1 kmh 29.85 in1010.8 mb 0.00 in0.0 mm 0.00 in0.0 mm 0.17 in4.3 mm
08:00 PM 54.5°F12.5°C 50.7°F10.4°C 87% 5.9 mph NNW9.5 kmh NNW 10.0 mph16.1 kmh 29.86 in1011.2 mb 0.00 in0.0 mm 0.00 in0.0 mm 0.17 in4.3 mm
08:10 PM 53.8°F12.1°C 50.3°F10.2°C 88% 5.4 mph N8.7 kmh N 9.0 mph14.5 kmh 29.86 in1011.2 mb 0.00 in0.0 mm 0.00 in0.0 mm 0.17 in4.3 mm
08:20 PM 53.4°F11.9°C 49.9°F9.9°C 88% 6.0 mph N9.7 kmh N 10.0 mph16.1 kmh 29.87 in1011.5 mb 0.00 in0.0 mm 0.00 in0.0 mm 0.17 in4.3 mm
08:30 PM 52.6°F11.4°C 49.4°F9.7°C 89% 6.4 mph NNW10.3 kmh NNW 9.0 mph14.5 kmh 29.87 in1011.5 mb 0.00 in0.0 mm 0.00 in0.0 mm 0.17 in4.3 mm
08:40 PM 52.2°F11.2°C 49.1°F9.5°C 89% 6.0 mph N9.7 kmh N 10.0 mph16.1 kmh 29.88 in1011.9 mb 0.00 in0.0 mm 0.00 in0.0 mm 0.17 in4.3 mm
08:50 PM 51.6°F10.9°C 48.8°F9.3°C 90% 5.1 mph NNW8.2 kmh NNW 10.0 mph16.1 kmh 29.89 in1012.2 mb 0.00 in0.0 mm 0.00 in0.0 mm 0.17 in4.3 mm
09:00 PM 51.3°F10.7°C 48.5°F9.2°C 90% 5.0 mph N8.0 kmh N 11.0 mph17.7 kmh 29.89 in1012.2 mb 0.00 in0.0 mm 0.00 in0.0 mm 0.17 in4.3 mm
09:10 PM 50.8°F10.4°C 48.3°F9.1°C 91% 4.9 mph N7.9 kmh N 6.0 mph9.7 kmh 29.90 in1012.5 mb 0.00 in0.0 mm 0.00 in0.0 mm 0.17 in4.3 mm
09:20 PM 50.4°F10.2°C 48.2°F9.0°C 92% 2.0 mph N3.2 kmh N 5.0 mph8.0 kmh 29.91 in1012.9 mb 0.00 in0.0 mm 0.00 in0.0 mm 0.17 in4.3 mm
09:30 PM 50.4°F10.2°C 48.2°F9.0°C 92% 1.6 mph N2.6 kmh N 5.0 mph8.0 kmh 29.91 in1012.9 mb 0.00 in0.0 mm 0.00 in0.0 mm 0.17 in4.3 mm
09:40 PM 49.9°F9.9°C 48.0°F8.9°C 93% 1.1 mph N1.8 kmh N 4.0 mph6.4 kmh 29.91 in1012.9 mb 0.00 in0.0 mm 0.00 in0.0 mm 0.17 in4.3 mm
09:50 PM 49.5°F9.7°C 47.8°F8.8°C 94% 0.1 mph N0.2 kmh N 2.0 mph3.2 kmh 29.92 in1013.2 mb 0.00 in0.0 mm 0.00 in0.0 mm 0.17 in4.3 mm
10:00 PM 49.2°F9.6°C 48.1°F8.9°C 96% Calm Calm -- 29.92 in1013.2 mb 0.00 in0.0 mm 0.00 in0.0 mm 0.17 in4.3 mm
10:10 PM 49.5°F9.7°C 48.4°F9.1°C 96% 0.5 mph N0.8 kmh N 6.0 mph9.7 kmh 29.92 in1013.2 mb 0.00 in0.0 mm 0.00 in0.0 mm 0.17 in4.3 mm
10:20 PM 49.8°F9.9°C 48.1°F8.9°C 94% 3.0 mph N4.8 kmh N 8.0 mph12.9 kmh 29.93 in1013.5 mb 0.00 in0.0 mm 0.00 in0.0 mm 0.17 in4.3 mm
10:30 PM 50.1°F10.1°C 48.2°F9.0°C 93% 4.6 mph N7.4 kmh N 8.0 mph12.9 kmh 29.93 in1013.5 mb 0.00 in0.0 mm 0.00 in0.0 mm 0.17 in4.3 mm
10:40 PM 50.1°F10.1°C 48.2°F9.0°C 93% 4.4 mph N7.1 kmh N 10.0 mph16.1 kmh 29.93 in1013.5 mb 0.00 in0.0 mm 0.00 in0.0 mm 0.17 in4.3 mm
10:50 PM 49.8°F9.9°C 48.1°F8.9°C 94% 5.5 mph N8.9 kmh N 8.0 mph12.9 kmh 29.94 in1013.9 mb 0.00 in0.0 mm 0.00 in0.0 mm 0.17 in4.3 mm
11:00 PM 49.4°F9.7°C 48.0°F8.9°C 95% 5.9 mph N9.5 kmh N 11.0 mph17.7 kmh 29.94 in1013.9 mb 0.00 in0.0 mm 0.00 in0.0 mm 0.17 in4.3 mm
11:10 PM 49.1°F9.5°C 48.0°F8.9°C 96% 6.0 mph N9.7 kmh N 13.0 mph20.9 kmh 29.95 in1014.2 mb 0.00 in0.0 mm 0.00 in0.0 mm 0.17 in4.3 mm
11:20 PM 48.5°F9.2°C 47.4°F8.6°C 96% 5.5 mph N8.9 kmh N 9.0 mph14.5 kmh 29.95 in1014.2 mb 0.00 in0.0 mm 0.00 in0.0 mm 0.17 in4.3 mm
11:30 PM 48.0°F8.9°C 46.9°F8.3°C 96% 6.4 mph N10.3 kmh N 11.0 mph17.7 kmh 29.95 in1014.2 mb 0.00 in0.0 mm 0.00 in0.0 mm 0.17 in4.3 mm
11:40 PM 47.7°F8.7°C 46.9°F8.3°C 97% 5.8 mph N9.3 kmh N 9.0 mph14.5 kmh 29.96 in1014.6 mb 0.00 in0.0 mm 0.00 in0.0 mm 0.17 in4.3 mm
11:50 PM 47.3°F8.5°C 46.5°F8.1°C 97% 5.0 mph N8.0 kmh N 8.0 mph12.9 kmh 29.96 in1014.6 mb 0.00 in0.0 mm 0.00 in0.0 mm 0.17 in4.3 mm